createdAt,value
2022-10-24T00:00:27.058Z,9.40
2022-10-24T00:02:57.926Z,9.30
2022-10-24T00:05:30.038Z,9.30
2022-10-24T00:08:00.604Z,9.30
2022-10-24T00:10:32.303Z,9.20
2022-10-24T00:13:03.992Z,9.20
2022-10-24T00:15:35.557Z,9.20
2022-10-24T00:18:06.784Z,9.20
2022-10-24T00:20:40.810Z,9.20
2022-10-24T00:23:13.847Z,9.20
2022-10-24T00:25:47.006Z,9.20
2022-10-24T00:28:18.678Z,9.20
2022-10-24T00:30:52.377Z,9.20
2022-10-24T00:33:26.430Z,9.20
2022-10-24T00:35:58.927Z,9.30
2022-10-24T00:38:33.392Z,9.30
2022-10-24T00:41:09.822Z,9.40
2022-10-24T00:43:42.737Z,9.40
2022-10-24T00:46:15.595Z,9.40
2022-10-24T00:48:50.847Z,9.40
2022-10-24T00:51:31.219Z,9.50
2022-10-24T00:54:07.727Z,9.60
2022-10-24T00:56:47.348Z,9.70
2022-10-24T00:59:24.659Z,9.70
2022-10-24T01:01:56.709Z,9.70
2022-10-24T01:04:31.397Z,9.80
2022-10-24T01:07:19.080Z,9.80
2022-10-24T01:10:23.882Z,9.80
2022-10-24T01:13:11.698Z,9.80
2022-10-24T01:15:53.696Z,9.80
2022-10-24T01:18:33.510Z,9.90
2022-10-24T01:21:27.711Z,9.90
2022-10-24T01:24:32.273Z,9.90
2022-10-24T01:27:35.450Z,9.80
2022-10-24T01:30:08.385Z,9.80
2022-10-24T01:32:44.073Z,9.80
2022-10-24T01:35:36.556Z,9.80
2022-10-24T01:38:14.615Z,9.70
2022-10-24T01:40:50.940Z,9.70
2022-10-24T01:43:24.789Z,9.70
2022-10-24T01:46:00.143Z,9.70
2022-10-24T01:48:31.146Z,9.60
2022-10-24T01:51:01.789Z,9.60
2022-10-24T01:53:32.113Z,9.60
2022-10-24T01:56:02.269Z,9.60
2022-10-24T01:58:30.937Z,9.70
2022-10-24T02:01:06.032Z,9.70
2022-10-24T02:03:38.589Z,9.80
2022-10-24T02:06:13.111Z,9.80
2022-10-24T02:08:45.009Z,9.80
2022-10-24T02:11:14.093Z,9.80
2022-10-24T02:13:49.182Z,9.80
2022-10-24T02:16:21.499Z,9.80
2022-10-24T02:19:00.382Z,9.80
2022-10-24T02:21:44.251Z,9.90
2022-10-24T02:24:25.927Z,9.90
2022-10-24T02:27:08.079Z,9.90
2022-10-24T02:29:47.353Z,10.00
2022-10-24T02:32:27.587Z,10.00
2022-10-24T02:35:02.793Z,10.00
2022-10-24T02:37:38.078Z,10.00
2022-10-24T02:40:13.314Z,10.10
2022-10-24T02:42:46.224Z,10.10
2022-10-24T02:45:20.693Z,10.00
2022-10-24T02:47:58.751Z,10.10
2022-10-24T02:50:33.910Z,10.10
2022-10-24T02:53:05.288Z,10.10
2022-10-24T02:55:35.873Z,10.10
2022-10-24T02:58:07.184Z,10.20
2022-10-24T03:00:38.111Z,10.10
2022-10-24T03:03:12.714Z,10.10
2022-10-24T03:05:48.651Z,10.10
2022-10-24T03:08:21.176Z,10.10
2022-10-24T03:10:54.105Z,10.10
2022-10-24T03:13:22.967Z,10.10
2022-10-24T03:15:59.960Z,10.10
2022-10-24T03:18:33.971Z,10.10
2022-10-24T03:21:02.942Z,10.10
2022-10-24T03:23:31.663Z,10.10
2022-10-24T03:26:00.891Z,10.20
2022-10-24T03:28:29.529Z,10.20
2022-10-24T03:30:58.178Z,10.20
2022-10-24T03:33:26.880Z,10.20
2022-10-24T03:35:57.002Z,10.20
2022-10-24T03:38:25.895Z,10.20
2022-10-24T03:40:54.628Z,10.20
2022-10-24T03:43:23.249Z,10.10
2022-10-24T03:45:52.044Z,10.20
2022-10-24T03:48:20.703Z,10.20
2022-10-24T03:50:49.365Z,10.20
2022-10-24T03:53:19.438Z,10.20
2022-10-24T03:55:48.114Z,10.20
2022-10-24T03:58:16.754Z,10.20
2022-10-24T04:00:45.490Z,10.20
2022-10-24T04:03:14.212Z,10.20
2022-10-24T04:05:42.986Z,10.20
2022-10-24T04:08:11.640Z,10.20
2022-10-24T04:10:42.218Z,10.20
2022-10-24T04:13:10.892Z,10.20
2022-10-24T04:15:39.576Z,10.20
2022-10-24T04:18:09.983Z,10.20
2022-10-24T04:20:40.735Z,10.20
2022-10-24T04:23:11.303Z,10.20
2022-10-24T04:25:45.204Z,10.20
2022-10-24T04:28:13.846Z,10.10
2022-10-24T04:33:12.320Z,10.20
2022-10-24T04:35:41.010Z,10.30
2022-10-24T04:38:09.664Z,10.20
2022-10-24T04:40:38.310Z,10.20
2022-10-24T04:43:10.288Z,10.20
2022-10-24T04:45:45.372Z,10.20
2022-10-24T04:48:16.454Z,10.30
2022-10-24T04:50:47.936Z,10.20
2022-10-24T04:53:17.395Z,10.20
2022-10-24T04:55:55.150Z,10.20
2022-10-24T04:58:27.218Z,10.30
2022-10-24T05:00:57.314Z,10.30
2022-10-24T05:03:29.905Z,10.30
2022-10-24T05:06:01.535Z,10.30
2022-10-24T05:08:35.126Z,10.30
2022-10-24T05:11:12.203Z,10.30
2022-10-24T05:13:43.502Z,10.30
2022-10-24T05:16:17.730Z,10.40
2022-10-24T05:18:49.942Z,10.40
2022-10-24T05:21:20.398Z,10.40
2022-10-24T05:23:53.766Z,10.40
2022-10-24T05:26:24.022Z,10.40
2022-10-24T05:28:55.291Z,10.30
2022-10-24T05:31:27.266Z,10.40
2022-10-24T05:33:56.073Z,10.40
2022-10-24T05:36:26.710Z,10.40
2022-10-24T05:38:56.950Z,10.40
2022-10-24T05:41:28.122Z,10.50
2022-10-24T05:43:59.340Z,10.50
2022-10-24T05:46:30.997Z,10.50
2022-10-24T05:49:00.546Z,10.50
2022-10-24T05:51:35.412Z,10.50
2022-10-24T05:54:05.303Z,10.50
2022-10-24T05:56:36.504Z,10.60
2022-10-24T05:59:09.140Z,10.60
2022-10-24T06:01:39.717Z,10.60
2022-10-24T06:04:13.792Z,10.60
2022-10-24T06:06:45.595Z,10.60
2022-10-24T06:09:15.246Z,10.70
2022-10-24T06:11:45.333Z,10.70
2022-10-24T06:14:18.823Z,10.80
2022-10-24T06:16:51.887Z,10.80
2022-10-24T06:19:22.804Z,10.80
2022-10-24T06:21:54.075Z,10.90
2022-10-24T06:24:24.640Z,10.90
2022-10-24T06:26:54.855Z,10.90
2022-10-24T06:29:26.236Z,11.00
2022-10-24T06:31:56.655Z,11.00
2022-10-24T06:34:28.895Z,11.00
2022-10-24T06:36:57.610Z,11.00
2022-10-24T06:39:29.626Z,11.10
2022-10-24T06:42:01.752Z,11.10
2022-10-24T06:44:32.283Z,11.10
2022-10-24T06:47:03.701Z,11.20
2022-10-24T06:49:34.450Z,11.20
2022-10-24T06:52:05.942Z,11.20
2022-10-24T06:54:37.024Z,11.20
2022-10-24T06:57:12.242Z,11.20
2022-10-24T06:59:49.708Z,11.20
2022-10-24T07:02:25.283Z,11.20
2022-10-24T07:04:59.138Z,11.20
2022-10-24T07:07:31.547Z,11.20
2022-10-24T07:10:01.803Z,11.20
2022-10-24T07:12:32.021Z,11.20
2022-10-24T07:15:08.372Z,11.20
2022-10-24T07:17:43.031Z,11.20
2022-10-24T07:20:17.069Z,11.20
2022-10-24T07:22:47.117Z,11.20
2022-10-24T07:25:20.224Z,11.20
2022-10-24T07:27:52.931Z,11.30
2022-10-24T07:30:23.694Z,11.30
2022-10-24T07:32:55.778Z,11.40
2022-10-24T07:35:26.964Z,11.40
2022-10-24T07:37:58.534Z,11.50
2022-10-24T07:40:27.781Z,11.40
2022-10-24T07:42:56.485Z,11.40
2022-10-24T07:45:28.152Z,11.50
2022-10-24T07:47:58.192Z,11.50
2022-10-24T07:50:27.332Z,11.50
2022-10-24T07:52:56.304Z,11.60
2022-10-24T07:55:25.066Z,11.60
2022-10-24T07:57:54.221Z,11.60
2022-10-24T08:00:24.240Z,11.60
2022-10-24T08:02:55.566Z,11.60
2022-10-24T08:05:29.732Z,11.70
2022-10-24T08:08:21.767Z,11.50
2022-10-24T08:10:58.068Z,11.70
2022-10-24T08:13:46.475Z,11.80
2022-10-24T08:16:22.674Z,11.90
2022-10-24T08:19:11.044Z,12.10
2022-10-24T08:21:44.340Z,12.30
2022-10-24T08:24:17.443Z,12.50
2022-10-24T08:26:50.337Z,12.70
2022-10-24T08:29:23.999Z,12.80
2022-10-24T08:31:55.710Z,13.00
2022-10-24T08:34:29.546Z,13.10
2022-10-24T08:36:59.397Z,13.10
2022-10-24T08:39:28.754Z,13.20
2022-10-24T08:42:03.587Z,13.20
2022-10-24T08:44:35.811Z,13.20
2022-10-24T08:47:15.878Z,13.30
2022-10-24T08:49:57.309Z,13.30
2022-10-24T08:52:34.593Z,13.30
2022-10-24T08:58:10.405Z,13.30
2022-10-24T09:00:46.817Z,13.20
2022-10-24T09:03:43.905Z,13.20
2022-10-24T09:06:24.578Z,13.20
2022-10-24T09:09:01.148Z,13.40
2022-10-24T09:11:43.345Z,13.60
2022-10-24T09:14:21.435Z,13.80
2022-10-24T09:16:55.593Z,13.90
2022-10-24T09:19:28.536Z,14.10
2022-10-24T09:22:01.787Z,14.20
2022-10-24T09:24:38.612Z,14.20
2022-10-24T09:27:12.744Z,14.30
2022-10-24T09:29:42.551Z,14.40
2022-10-24T09:32:19.479Z,14.50
2022-10-24T09:34:51.252Z,14.70
2022-10-24T09:37:46.885Z,14.70
2022-10-24T09:40:24.190Z,14.90
2022-10-24T09:42:58.753Z,15.00
2022-10-24T09:45:44.906Z,15.00
2022-10-24T09:48:27.532Z,15.00
2022-10-24T09:51:01.118Z,15.00
2022-10-24T09:53:34.053Z,14.90
2022-10-24T09:56:11.192Z,14.90
2022-10-24T09:58:43.910Z,14.90
2022-10-24T10:01:25.112Z,15.00
2022-10-24T10:04:09.436Z,15.00
2022-10-24T10:06:46.184Z,15.10
2022-10-24T10:09:24.969Z,15.10
2022-10-24T10:12:03.164Z,15.10
2022-10-24T10:14:34.750Z,15.10
2022-10-24T10:17:08.228Z,15.00
2022-10-24T10:19:40.741Z,15.00
2022-10-24T10:22:26.234Z,14.90
2022-10-24T10:24:57.775Z,14.80
2022-10-24T10:27:33.675Z,14.70
2022-10-24T10:30:27.108Z,14.70
2022-10-24T10:33:16.183Z,14.60
2022-10-24T10:35:51.838Z,14.50
2022-10-24T10:38:44.534Z,14.50
2022-10-24T10:41:27.935Z,14.50
2022-10-24T10:44:05.225Z,14.60
2022-10-24T10:46:45.671Z,14.70
2022-10-24T10:49:23.338Z,14.70
2022-10-24T10:51:57.679Z,14.80
2022-10-24T10:54:56.832Z,14.90
2022-10-24T10:57:34.631Z,14.90
2022-10-24T11:00:11.390Z,14.90
2022-10-24T11:03:06.108Z,14.90
2022-10-24T11:05:57.732Z,14.90
2022-10-24T11:09:05.934Z,14.80
2022-10-24T11:11:39.374Z,14.80
2022-10-24T11:14:29.952Z,14.80
2022-10-24T11:17:10.968Z,14.80
2022-10-24T11:19:56.963Z,14.90
2022-10-24T11:22:31.956Z,15.00
2022-10-24T11:25:21.515Z,15.10
2022-10-24T11:27:57.544Z,15.20
2022-10-24T11:30:43.832Z,15.30
2022-10-24T11:33:22.907Z,15.40
2022-10-24T11:36:13.839Z,15.50
2022-10-24T11:38:51.841Z,15.60
2022-10-24T11:41:43.267Z,15.70
2022-10-24T11:44:33.114Z,15.80
2022-10-24T11:47:13.621Z,15.80
2022-10-24T11:49:46.725Z,15.80
2022-10-24T11:52:25.565Z,15.80
2022-10-24T11:55:01.182Z,15.70
2022-10-24T11:57:32.877Z,15.70
2022-10-24T12:00:03.688Z,15.80
2022-10-24T12:03:24.861Z,16.00
2022-10-24T12:06:19.733Z,16.20
2022-10-24T12:09:28.529Z,16.50
2022-10-24T12:12:29.772Z,16.70
2022-10-24T12:15:18.861Z,16.90
2022-10-24T12:18:06.752Z,17.20
2022-10-24T12:20:40.069Z,17.50
2022-10-24T12:23:09.109Z,17.80
2022-10-24T12:25:40.881Z,18.00
2022-10-24T12:28:25.332Z,18.00
2022-10-24T12:31:15.023Z,18.00
2022-10-24T12:33:46.576Z,18.00
2022-10-24T12:36:19.787Z,17.80
2022-10-24T12:39:06.651Z,17.70
2022-10-24T12:41:42.758Z,17.60
2022-10-24T12:44:39.366Z,17.50
2022-10-24T12:47:40.598Z,17.20
2022-10-24T12:50:49.439Z,17.10
2022-10-24T12:53:31.950Z,16.90
2022-10-24T12:56:16.792Z,16.80
2022-10-24T12:58:57.464Z,16.60
2022-10-24T13:01:33.916Z,16.50
2022-10-24T13:04:37.423Z,16.50
2022-10-24T13:07:31.265Z,16.40
2022-10-24T13:10:24.450Z,16.30
2022-10-24T13:13:17.745Z,16.40
2022-10-24T13:15:51.697Z,16.40
2022-10-24T13:18:37.471Z,16.50
2022-10-24T13:21:20.990Z,16.50
2022-10-24T13:23:52.924Z,16.50
2022-10-24T13:26:47.605Z,16.50
2022-10-24T13:29:42.089Z,16.50
2022-10-24T13:32:33.250Z,16.50
2022-10-24T13:35:05.359Z,16.40
2022-10-24T13:37:40.470Z,16.30
2022-10-24T13:40:17.117Z,16.20
2022-10-24T13:43:07.733Z,16.20
2022-10-24T13:45:49.940Z,16.10
2022-10-24T13:48:22.267Z,16.00
2022-10-24T13:51:13.254Z,15.90
2022-10-24T13:53:58.869Z,15.90
2022-10-24T13:56:30.442Z,15.90
2022-10-24T13:59:06.159Z,15.80
2022-10-24T14:04:20.829Z,15.80
2022-10-24T14:06:54.381Z,15.80
2022-10-24T14:09:25.102Z,15.80
2022-10-24T14:11:58.980Z,15.80
2022-10-24T14:14:34.705Z,15.70
2022-10-24T14:17:23.975Z,15.70
2022-10-24T14:19:57.645Z,15.70
2022-10-24T14:22:29.906Z,15.70
2022-10-24T14:24:58.899Z,15.70
2022-10-24T14:27:29.311Z,15.60
2022-10-24T14:30:03.290Z,15.50
2022-10-24T14:32:33.577Z,15.40
2022-10-24T14:35:03.820Z,15.30
2022-10-24T14:37:38.801Z,15.10
2022-10-24T14:40:18.147Z,15.00
2022-10-24T14:42:50.093Z,14.90
2022-10-24T14:45:31.081Z,14.80
2022-10-24T14:48:00.797Z,14.60
2022-10-24T14:50:38.965Z,14.50
2022-10-24T14:53:09.603Z,14.40
2022-10-24T14:55:45.220Z,14.30
2022-10-24T14:58:26.161Z,14.30
2022-10-24T15:00:59.533Z,14.20
2022-10-24T15:03:33.131Z,14.10
2022-10-24T15:06:10.768Z,14.00
2022-10-24T15:11:26.822Z,13.80
2022-10-24T15:14:07.043Z,13.70
2022-10-24T15:16:43.645Z,13.70
2022-10-24T15:19:18.384Z,13.60
2022-10-24T15:21:49.101Z,13.50
2022-10-24T15:24:26.424Z,13.40
2022-10-24T15:27:13.819Z,13.30
2022-10-24T15:29:44.748Z,13.30
2022-10-24T15:32:14.812Z,13.20
2022-10-24T15:34:46.578Z,13.10
2022-10-24T15:37:23.781Z,13.00
2022-10-24T15:39:56.365Z,12.90
2022-10-24T15:42:26.175Z,12.90
2022-10-24T15:44:57.032Z,12.80
2022-10-24T15:47:29.331Z,12.80
2022-10-24T15:49:59.834Z,12.70
2022-10-24T15:52:28.812Z,12.70
2022-10-24T15:54:59.667Z,12.60
2022-10-24T15:57:29.817Z,12.50
2022-10-24T15:59:59.654Z,12.50
2022-10-24T16:02:30.262Z,12.40
2022-10-24T16:05:01.370Z,12.40
2022-10-24T16:07:31.728Z,12.30
2022-10-24T16:10:02.654Z,12.30
2022-10-24T16:12:32.428Z,12.20
2022-10-24T16:15:01.094Z,12.20
2022-10-24T16:17:33.198Z,12.10
2022-10-24T16:20:20.768Z,12.10
2022-10-24T16:22:55.640Z,12.10
2022-10-24T16:25:27.900Z,12.00
2022-10-24T16:27:57.073Z,12.00
2022-10-24T16:30:28.776Z,12.10
2022-10-24T16:33:00.159Z,12.00
2022-10-24T16:35:30.223Z,12.10
2022-10-24T16:38:02.798Z,12.00
2022-10-24T16:40:33.614Z,12.00
2022-10-24T16:43:05.182Z,12.00
2022-10-24T16:45:34.769Z,11.90
2022-10-24T16:48:08.276Z,11.90
2022-10-24T16:50:37.337Z,11.80
2022-10-24T16:53:10.455Z,11.80
2022-10-24T16:55:41.885Z,11.70
2022-10-24T16:58:13.711Z,11.60
2022-10-24T17:00:44.562Z,11.60
2022-10-24T17:03:16.053Z,11.50
2022-10-24T17:05:52.079Z,11.50
2022-10-24T17:08:22.091Z,11.50
2022-10-24T17:10:51.602Z,11.40
2022-10-24T17:13:22.001Z,11.40
2022-10-24T17:15:50.788Z,11.40
2022-10-24T17:18:25.131Z,11.30
2022-10-24T17:21:01.596Z,11.30
2022-10-24T17:23:30.802Z,11.20
2022-10-24T17:26:00.581Z,11.20
2022-10-24T17:28:33.148Z,11.20
2022-10-24T17:31:03.569Z,11.20
2022-10-24T17:33:37.274Z,11.10
2022-10-24T17:36:09.112Z,11.10
2022-10-24T17:38:47.583Z,11.10
2022-10-24T17:41:28.157Z,11.10
2022-10-24T17:44:02.589Z,11.10
2022-10-24T17:46:36.285Z,11.10
2022-10-24T17:49:12.020Z,11.10
2022-10-24T17:51:43.901Z,11.10
2022-10-24T17:54:12.717Z,11.10
2022-10-24T17:56:42.623Z,11.00
2022-10-24T17:59:12.588Z,11.00
2022-10-24T18:01:41.727Z,11.10
2022-10-24T18:04:13.894Z,11.10
2022-10-24T18:06:43.570Z,11.10
2022-10-24T18:09:13.482Z,11.20
2022-10-24T18:11:43.514Z,11.20
2022-10-24T18:14:12.540Z,11.30
2022-10-24T18:16:41.812Z,11.30
2022-10-24T18:19:11.967Z,11.20
2022-10-24T18:21:40.953Z,11.30
2022-10-24T18:24:10.931Z,11.30
2022-10-24T18:26:41.989Z,11.30
2022-10-24T18:29:12.193Z,11.30
2022-10-24T18:31:45.402Z,11.10
2022-10-24T18:34:16.207Z,11.30
2022-10-24T18:36:45.814Z,11.30
2022-10-24T18:39:17.430Z,11.40
2022-10-24T18:41:54.399Z,11.60
2022-10-24T18:44:34.552Z,11.40
2022-10-24T18:47:06.619Z,11.40
2022-10-24T18:49:39.477Z,11.40
2022-10-24T18:52:19.508Z,11.50
2022-10-24T18:55:05.074Z,11.60
2022-10-24T18:57:35.873Z,11.60
2022-10-24T19:00:11.215Z,11.70
2022-10-24T19:02:48.323Z,11.70
2022-10-24T19:05:29.609Z,11.70
2022-10-24T19:07:58.639Z,11.80
2022-10-24T19:10:30.744Z,11.80
2022-10-24T19:13:01.222Z,11.80
2022-10-24T19:15:32.084Z,11.80
2022-10-24T19:18:02.057Z,11.80
2022-10-24T19:20:35.894Z,11.70
2022-10-24T19:23:06.423Z,11.70
2022-10-24T19:25:35.497Z,11.60
2022-10-24T19:28:04.163Z,11.60
2022-10-24T19:30:35.790Z,11.60
2022-10-24T19:33:06.188Z,11.50
2022-10-24T19:35:38.533Z,11.50
2022-10-24T19:38:08.605Z,11.50
2022-10-24T19:40:37.315Z,11.50
2022-10-24T19:43:06.832Z,11.50
2022-10-24T19:45:45.577Z,11.50
2022-10-24T19:48:21.879Z,11.40
2022-10-24T19:50:52.835Z,11.50
2022-10-24T19:53:22.828Z,11.50
2022-10-24T19:55:52.386Z,11.50
2022-10-24T19:58:23.410Z,11.50
2022-10-24T20:00:52.557Z,11.50
2022-10-24T20:03:21.989Z,11.60
2022-10-24T20:05:53.547Z,11.70
2022-10-24T20:08:22.656Z,11.70
2022-10-24T20:10:54.076Z,11.80
2022-10-24T20:13:27.557Z,11.80
2022-10-24T20:16:02.422Z,11.80
2022-10-24T20:18:34.931Z,11.90
2022-10-24T20:21:07.111Z,12.00
2022-10-24T20:23:36.374Z,12.00
2022-10-24T20:26:08.815Z,12.00
2022-10-24T20:28:38.671Z,12.10
2022-10-24T20:31:08.331Z,12.10
2022-10-24T20:33:36.931Z,12.20
2022-10-24T20:36:07.380Z,12.20
2022-10-24T20:38:36.063Z,12.20
2022-10-24T20:41:05.036Z,12.20
2022-10-24T20:43:33.643Z,12.20
2022-10-24T20:46:06.265Z,12.20
2022-10-24T20:48:35.599Z,12.20
2022-10-24T20:51:11.080Z,12.20
2022-10-24T20:53:40.338Z,12.20
2022-10-24T20:56:12.584Z,12.20
2022-10-24T20:58:43.473Z,12.20
2022-10-24T21:01:16.910Z,12.20
2022-10-24T21:03:46.414Z,12.20
2022-10-24T21:06:24.323Z,12.20
2022-10-24T21:08:57.855Z,12.20
2022-10-24T21:11:29.591Z,12.20
2022-10-24T21:14:00.610Z,12.20
2022-10-24T21:16:30.387Z,12.20
2022-10-24T21:18:59.812Z,12.30
2022-10-24T21:21:31.670Z,12.30
2022-10-24T21:24:05.938Z,12.30
2022-10-24T21:26:38.632Z,12.30
2022-10-24T21:29:27.608Z,12.30
2022-10-24T21:31:56.813Z,12.30
2022-10-24T21:34:27.813Z,12.30
2022-10-24T21:37:02.112Z,12.30
2022-10-24T21:39:30.772Z,12.30
2022-10-24T21:41:59.399Z,12.30
2022-10-24T21:44:28.395Z,12.40
2022-10-24T21:46:57.257Z,12.40
2022-10-24T21:49:26.835Z,12.40
2022-10-24T21:51:55.904Z,12.40
2022-10-24T21:54:28.962Z,12.40
2022-10-24T21:56:57.875Z,12.40
2022-10-24T21:59:29.763Z,12.40
2022-10-24T22:02:02.818Z,12.40
2022-10-24T22:04:34.920Z,12.40
2022-10-24T22:07:07.514Z,12.50
2022-10-24T22:09:37.648Z,12.60
2022-10-24T22:12:06.801Z,12.50
2022-10-24T22:14:40.302Z,12.50
2022-10-24T22:17:09.301Z,12.50
2022-10-24T22:19:41.011Z,12.60
2022-10-24T22:22:11.093Z,12.60
2022-10-24T22:24:41.164Z,12.60
2022-10-24T22:27:10.014Z,12.60
2022-10-24T22:29:42.689Z,12.70
2022-10-24T22:32:18.407Z,12.70
2022-10-24T22:34:47.826Z,12.70
2022-10-24T22:37:32.029Z,12.80
2022-10-24T22:40:05.535Z,12.80
2022-10-24T22:42:38.970Z,12.90
2022-10-24T22:45:09.160Z,12.90
2022-10-24T22:47:48.479Z,12.90
2022-10-24T22:50:35.947Z,13.00
2022-10-24T22:53:04.995Z,13.00
2022-10-24T22:55:39.026Z,13.00
2022-10-24T22:58:10.569Z,13.10
2022-10-24T23:00:39.807Z,13.10
2022-10-24T23:03:18.664Z,13.10
2022-10-24T23:05:54.165Z,13.10
2022-10-24T23:08:32.849Z,13.10
2022-10-24T23:11:04.147Z,13.10
2022-10-24T23:13:33.673Z,13.10
2022-10-24T23:16:11.174Z,13.10
2022-10-24T23:18:40.392Z,13.10
2022-10-24T23:21:18.704Z,13.10
2022-10-24T23:23:47.785Z,13.10
2022-10-24T23:26:27.512Z,13.10
2022-10-24T23:29:02.941Z,13.10
2022-10-24T23:31:32.034Z,13.10
2022-10-24T23:34:01.251Z,13.10
2022-10-24T23:36:30.330Z,13.10
2022-10-24T23:38:59.547Z,13.10
2022-10-24T23:41:30.526Z,13.10
2022-10-24T23:43:59.629Z,13.10
2022-10-24T23:46:33.129Z,13.10
2022-10-24T23:49:28.196Z,13.10
2022-10-24T23:52:06.052Z,13.10
2022-10-24T23:54:35.272Z,13.10
2022-10-24T23:57:15.050Z,13.10
2022-10-24T23:59:43.922Z,13.10
